Terminal Aerodrome Forecast
Issued by NWS Louisville, KY

Home | Current Version | Previous Version | Text Only | Print | Product List | Glossary On
Versions: 1 2 3 4 5 6 7 8 9 10 11 12 13 14 15 16 17 18 19
620
FTUS43 KLMK 190520
TAFLEX
TAF
KLEX 190520Z 1906/2006 23005KT 5SM BR VCSH BKN025 OVC060
     FM190800 24004KT 4SM BR OVC008
     FM191600 25004KT P6SM OVC015
     FM200200 VRB03KT P6SM SCT040=

USA.gov is the U.S. government's official web portal to all federal, state and local government web resources and services.